createdAt,value
2017-04-29T00:01:46.060Z,41.52
2017-04-29T00:04:13.851Z,48.30
2017-04-29T00:06:40.336Z,48.00
2017-04-29T00:09:07.483Z,44.00
2017-04-29T00:11:34.527Z,46.28
2017-04-29T00:14:01.604Z,49.32
2017-04-29T00:16:29.874Z,46.85
2017-04-29T00:18:56.899Z,47.47
2017-04-29T00:21:23.939Z,51.60
2017-04-29T00:23:51.159Z,49.77
2017-04-29T00:26:18.267Z,45.72
2017-04-29T00:28:45.325Z,48.22
2017-04-29T00:31:12.399Z,48.52
2017-04-29T00:33:38.690Z,51.88
2017-04-29T00:36:05.026Z,59.60
2017-04-29T00:38:31.400Z,58.90
2017-04-29T00:40:58.475Z,55.88
2017-04-29T00:43:25.606Z,55.20
2017-04-29T00:45:51.935Z,55.95
2017-04-29T00:48:19.025Z,58.75
2017-04-29T00:50:46.187Z,52.23
2017-04-29T00:53:13.411Z,50.25
2017-04-29T00:55:40.766Z,51.95
2017-04-29T00:58:07.810Z,54.02
2017-04-29T01:00:34.155Z,54.62
2017-04-29T01:03:00.483Z,50.78
2017-04-29T01:05:27.527Z,50.32
2017-04-29T01:07:54.819Z,47.52
2017-04-29T01:10:21.874Z,49.58
2017-04-29T01:12:48.196Z,46.75
2017-04-29T01:15:14.510Z,51.98
2017-04-29T01:17:41.545Z,58.03
2017-04-29T01:20:08.721Z,45.82
2017-04-29T01:22:35.895Z,54.45
2017-04-29T01:25:02.229Z,50.93
2017-04-29T01:27:29.278Z,53.60
2017-04-29T01:29:55.642Z,51.62
2017-04-29T01:32:22.687Z,53.45
2017-04-29T01:34:50.901Z,50.95
2017-04-29T01:37:17.234Z,55.45
2017-04-29T01:39:43.491Z,54.28
2017-04-29T01:42:09.903Z,54.10
2017-04-29T01:44:37.033Z,54.12
2017-04-29T01:47:03.401Z,50.88
2017-04-29T01:49:29.793Z,49.95
2017-04-29T01:51:56.828Z,51.22
2017-04-29T01:54:23.916Z,52.77
2017-04-29T01:56:50.487Z,49.42
2017-04-29T01:59:17.595Z,55.10
2017-04-29T02:01:44.671Z,54.35
2017-04-29T02:04:11.298Z,54.97
2017-04-29T02:06:38.347Z,49.03
2017-04-29T02:09:04.757Z,50.48
2017-04-29T02:11:31.956Z,50.80
2017-04-29T02:13:58.276Z,48.37
2017-04-29T02:16:25.280Z,51.42
2017-04-29T02:18:51.584Z,56.58
2017-04-29T02:21:18.719Z,56.23
2017-04-29T02:23:45.059Z,62.85
2017-04-29T02:26:11.438Z,55.92
2017-04-29T02:28:38.629Z,53.83
2017-04-29T02:31:05.823Z,48.95
2017-04-29T02:33:32.971Z,50.13
2017-04-29T02:35:59.274Z,50.75
2017-04-29T02:38:26.346Z,42.94
2017-04-29T02:40:53.500Z,42.77
2017-04-29T02:43:20.538Z,37.52
2017-04-29T02:45:47.611Z,35.22
2017-04-29T02:48:13.931Z,36.15
2017-04-29T02:50:41.003Z,35.30
2017-04-29T02:53:08.051Z,33.12
2017-04-29T02:55:34.613Z,36.83
2017-04-29T02:58:01.619Z,32.02
2017-04-29T03:00:27.994Z,31.32
2017-04-29T03:02:56.084Z,33.62
2017-04-29T03:05:23.183Z,29.10
2017-04-29T03:07:49.674Z,30.92
2017-04-29T03:10:16.206Z,28.74
2017-04-29T03:12:42.495Z,31.12
2017-04-29T03:15:08.892Z,30.36
2017-04-29T03:17:36.996Z,37.54
2017-04-29T03:20:03.283Z,30.72
2017-04-29T03:22:30.319Z,27.18
2017-04-29T03:24:57.505Z,25.92
2017-04-29T03:27:23.831Z,28.60
2017-04-29T03:29:50.167Z,27.60
2017-04-29T03:32:16.515Z,28.13
2017-04-29T03:34:42.839Z,28.92
2017-04-29T03:37:09.866Z,27.80
2017-04-29T03:39:36.479Z,28.56
2017-04-29T03:42:02.773Z,27.30
2017-04-29T03:44:29.086Z,28.28
2017-04-29T03:46:55.494Z,29.56
2017-04-29T03:49:21.763Z,29.32
2017-04-29T03:51:48.863Z,33.38
2017-04-29T03:54:15.196Z,30.32
2017-04-29T03:56:41.521Z,29.72
2017-04-29T03:59:08.564Z,31.30
2017-04-29T04:01:35.019Z,29.95
2017-04-29T04:04:01.356Z,33.30
2017-04-29T04:06:27.627Z,34.12
2017-04-29T04:08:54.034Z,34.92
2017-04-29T04:11:21.067Z,37.38
2017-04-29T04:13:47.402Z,42.64
2017-04-29T04:16:13.859Z,40.35
2017-04-29T04:18:40.160Z,36.06
2017-04-29T04:21:07.242Z,30.92
2017-04-29T04:23:33.554Z,36.58
2017-04-29T04:26:00.623Z,33.38
2017-04-29T04:28:26.958Z,34.92
2017-04-29T04:30:53.299Z,36.13
2017-04-29T04:33:19.623Z,40.67
2017-04-29T04:35:46.648Z,37.54
2017-04-29T04:38:13.230Z,40.36
2017-04-29T04:40:39.547Z,39.84
2017-04-29T04:43:06.603Z,38.02
2017-04-29T04:45:33.815Z,42.03
2017-04-29T04:48:15.773Z,41.08
2017-04-29T04:50:43.882Z,39.82
2017-04-29T04:53:10.979Z,40.10
2017-04-29T04:55:38.031Z,39.62
2017-04-29T04:58:05.315Z,43.75
2017-04-29T05:00:31.726Z,39.28
2017-04-29T05:02:58.795Z,40.43
2017-04-29T05:05:25.252Z,35.35
2017-04-29T05:07:51.551Z,35.32
2017-04-29T05:10:17.934Z,31.42
2017-04-29T05:12:44.363Z,32.60
2017-04-29T05:15:10.668Z,33.80
2017-04-29T05:17:37.751Z,33.13
2017-04-29T05:20:04.089Z,28.78
2017-04-29T05:22:30.438Z,30.63
2017-04-29T05:24:56.863Z,27.66
2017-04-29T05:27:23.183Z,25.28
2017-04-29T05:29:50.253Z,26.42
2017-04-29T05:32:16.823Z,22.50
2017-04-29T05:34:44.637Z,24.58
2017-04-29T05:37:11.627Z,22.80
2017-04-29T05:39:38.010Z,22.74
2017-04-29T05:42:04.391Z,21.82
2017-04-29T05:44:31.384Z,23.18
2017-04-29T05:46:57.688Z,21.10
2017-04-29T05:49:24.047Z,25.16
2017-04-29T05:51:50.374Z,22.74
2017-04-29T05:54:16.919Z,20.68
2017-04-29T05:56:43.259Z,19.44
2017-04-29T05:59:10.193Z,20.30
2017-04-29T06:01:36.834Z,20.08
2017-04-29T06:04:03.175Z,19.90
2017-04-29T06:06:29.496Z,20.16
2017-04-29T06:08:55.851Z,21.88
2017-04-29T06:11:22.164Z,22.54
2017-04-29T06:13:48.568Z,23.82
2017-04-29T06:16:16.444Z,21.62
2017-04-29T06:18:42.803Z,22.82
2017-04-29T06:21:12.807Z,18.82
2017-04-29T06:23:39.358Z,21.24
2017-04-29T06:26:06.404Z,22.20
2017-04-29T06:28:34.499Z,19.54
2017-04-29T06:31:01.963Z,20.10
2017-04-29T06:33:29.055Z,19.68
2017-04-29T06:35:55.347Z,16.44
2017-04-29T06:38:22.436Z,19.36
2017-04-29T06:40:48.740Z,16.72
2017-04-29T06:43:15.799Z,17.78
2017-04-29T06:45:42.947Z,18.78
2017-04-29T06:48:10.003Z,17.74
2017-04-29T06:50:37.077Z,17.40
2017-04-29T06:53:03.428Z,16.62
2017-04-29T06:55:29.734Z,17.06
2017-04-29T06:57:57.105Z,14.88
2017-04-29T07:00:24.500Z,15.80
2017-04-29T07:02:50.928Z,16.54
2017-04-29T07:05:17.991Z,15.66
2017-04-29T07:07:44.728Z,17.60
2017-04-29T07:10:11.029Z,16.24
2017-04-29T07:12:37.433Z,20.20
2017-04-29T07:15:04.028Z,16.54
2017-04-29T07:17:30.682Z,14.88
2017-04-29T07:19:56.985Z,14.22
2017-04-29T07:22:29.017Z,16.30
2017-04-29T07:24:56.296Z,14.78
2017-04-29T07:27:23.694Z,12.74
2017-04-29T07:29:50.235Z,15.86
2017-04-29T07:32:22.557Z,13.30
2017-04-29T07:34:55.161Z,15.00
2017-04-29T07:37:21.690Z,14.06
2017-04-29T07:39:48.899Z,13.70
2017-04-29T07:42:15.355Z,14.64
2017-04-29T07:44:41.833Z,13.52
2017-04-29T07:47:08.899Z,13.04
2017-04-29T07:49:36.424Z,11.20
2017-04-29T07:52:03.519Z,13.30
2017-04-29T07:54:30.675Z,12.70
2017-04-29T07:56:57.708Z,13.10
2017-04-29T07:59:24.748Z,12.40
2017-04-29T08:01:51.141Z,11.78
2017-04-29T08:04:17.455Z,13.64
2017-04-29T08:06:46.707Z,13.84
2017-04-29T08:09:13.029Z,13.06
2017-04-29T08:11:39.352Z,12.26
2017-04-29T08:14:05.687Z,13.74
2017-04-29T08:16:32.011Z,12.28
2017-04-29T08:18:59.399Z,11.90
2017-04-29T08:21:25.914Z,10.90
2017-04-29T08:23:52.203Z,11.42
2017-04-29T08:26:20.141Z,11.20
2017-04-29T08:28:47.158Z,10.46
2017-04-29T08:31:14.233Z,11.54
2017-04-29T08:33:40.795Z,10.14
2017-04-29T08:36:07.123Z,10.44
2017-04-29T08:38:33.453Z,9.98
2017-04-29T08:40:59.762Z,10.68
2017-04-29T08:43:26.823Z,10.38
2017-04-29T08:45:54.354Z,10.58
2017-04-29T08:48:20.946Z,10.26
2017-04-29T08:50:48.003Z,11.10
2017-04-29T08:53:14.259Z,8.44
2017-04-29T08:55:41.595Z,10.04
2017-04-29T08:58:08.920Z,9.26
2017-04-29T09:00:35.200Z,9.54
2017-04-29T09:03:01.907Z,9.24
2017-04-29T09:05:29.987Z,8.80
2017-04-29T09:07:59.329Z,8.76
2017-04-29T09:10:25.653Z,9.66
2017-04-29T09:12:52.692Z,7.92
2017-04-29T09:15:19.764Z,8.52
2017-04-29T09:17:48.398Z,8.74
2017-04-29T09:20:18.227Z,8.82
2017-04-29T09:22:44.616Z,8.04
2017-04-29T09:25:12.043Z,7.90
2017-04-29T09:27:39.163Z,7.90
2017-04-29T09:30:06.580Z,8.66
2017-04-29T09:32:34.182Z,8.00
2017-04-29T09:35:05.443Z,8.12
2017-04-29T09:37:35.322Z,7.96
2017-04-29T09:40:06.260Z,8.66
2017-04-29T09:42:43.061Z,7.48
2017-04-29T09:45:15.564Z,7.92
2017-04-29T09:47:58.935Z,7.58
2017-04-29T09:50:36.882Z,8.18
2017-04-29T09:53:11.665Z,7.32
2017-04-29T09:55:54.017Z,7.02
2017-04-29T09:58:30.452Z,6.78
2017-04-29T10:01:04.033Z,7.44
2017-04-29T10:03:36.257Z,6.94
2017-04-29T10:06:12.969Z,7.24
2017-04-29T10:08:47.534Z,8.98
2017-04-29T10:11:19.777Z,8.82
2017-04-29T10:13:53.895Z,7.82
2017-04-29T10:16:29.001Z,7.44
2017-04-29T10:19:02.257Z,7.32
2017-04-29T10:21:34.730Z,7.62
2017-04-29T10:24:05.147Z,6.24
2017-04-29T10:26:36.682Z,6.52
2017-04-29T10:29:10.682Z,7.28
2017-04-29T10:31:41.562Z,7.00
2017-04-29T10:34:08.226Z,6.62
2017-04-29T10:36:39.224Z,6.96
2017-04-29T10:39:13.966Z,5.50
2017-04-29T10:41:49.047Z,6.80
2017-04-29T10:44:22.206Z,6.44
2017-04-29T10:47:00.595Z,7.28
2017-04-29T10:49:32.037Z,6.92
2017-04-29T10:51:59.583Z,6.84
2017-04-29T10:54:33.989Z,6.42
2017-04-29T10:57:10.499Z,7.06
2017-04-29T10:59:43.646Z,5.70
2017-04-29T11:02:19.032Z,5.36
2017-04-29T11:04:50.497Z,5.34
2017-04-29T11:07:21.239Z,4.48
2017-04-29T11:09:47.891Z,5.48
2017-04-29T11:12:20.671Z,6.06
2017-04-29T11:14:52.458Z,5.44
2017-04-29T11:17:27.359Z,5.28
2017-04-29T11:20:03.997Z,5.68
2017-04-29T11:22:32.297Z,5.12
2017-04-29T11:25:04.027Z,4.96
2017-04-29T11:27:32.646Z,5.26
2017-04-29T11:30:05.517Z,5.22
2017-04-29T11:32:41.583Z,5.56
2017-04-29T11:35:17.379Z,5.86
2017-04-29T11:37:50.979Z,6.20
2017-04-29T11:40:24.043Z,4.82
2017-04-29T11:42:51.459Z,4.22
2017-04-29T11:45:25.359Z,3.76
2017-04-29T11:47:53.495Z,3.42
2017-04-29T11:50:24.317Z,4.68
2017-04-29T11:52:56.933Z,4.78
2017-04-29T11:55:30.607Z,3.90
2017-04-29T11:57:58.057Z,4.68
2017-04-29T12:00:31.004Z,5.88
2017-04-29T12:03:04.338Z,5.08
2017-04-29T12:05:38.138Z,4.92
2017-04-29T12:08:10.571Z,4.66
2017-04-29T12:10:43.839Z,4.60
2017-04-29T12:13:16.014Z,4.64
2017-04-29T12:15:48.110Z,4.66
2017-04-29T12:18:15.819Z,4.52
2017-04-29T12:20:42.933Z,4.40
2017-04-29T12:23:15.082Z,4.88
2017-04-29T12:25:47.251Z,3.66
2017-04-29T12:28:20.090Z,3.70
2017-04-29T12:30:51.302Z,5.06
2017-04-29T12:33:21.145Z,4.26
2017-04-29T12:35:51.722Z,4.06
2017-04-29T12:38:23.937Z,3.98
2017-04-29T12:40:58.875Z,4.14
2017-04-29T12:43:30.763Z,3.98
2017-04-29T12:46:03.358Z,4.26
2017-04-29T12:48:33.406Z,4.66
2017-04-29T12:51:02.070Z,4.70
2017-04-29T12:53:30.375Z,4.00
2017-04-29T12:56:01.145Z,3.42
2017-04-29T12:58:29.493Z,3.60
2017-04-29T13:01:01.993Z,3.30
2017-04-29T13:03:30.369Z,4.12
2017-04-29T13:06:08.903Z,3.54
2017-04-29T13:08:36.711Z,4.00
2017-04-29T13:11:09.083Z,3.80
2017-04-29T13:13:42.048Z,3.52
2017-04-29T13:16:11.326Z,3.30
2017-04-29T13:18:43.241Z,3.54
2017-04-29T13:21:16.532Z,3.86
2017-04-29T13:23:53.863Z,4.32
2017-04-29T13:26:24.279Z,3.62
2017-04-29T13:28:56.242Z,4.28
2017-04-29T13:31:25.174Z,3.54
2017-04-29T13:33:57.252Z,3.34
2017-04-29T13:36:35.441Z,3.78
2017-04-29T13:39:11.917Z,3.50
2017-04-29T13:41:47.119Z,3.30
2017-04-29T13:44:16.407Z,3.80
2017-04-29T13:46:48.705Z,3.56
2017-04-29T13:49:16.455Z,3.16
2017-04-29T13:51:44.730Z,3.22
2017-04-29T13:54:11.081Z,3.48
2017-04-29T13:56:43.707Z,3.02
2017-04-29T13:59:13.639Z,3.62
2017-04-29T14:01:41.821Z,3.90
2017-04-29T14:04:13.508Z,3.42
2017-04-29T14:06:41.658Z,3.30
2017-04-29T14:09:09.975Z,3.10
2017-04-29T14:11:37.368Z,2.88
2017-04-29T14:14:04.824Z,2.44
2017-04-29T14:16:38.944Z,3.12
2017-04-29T14:19:11.780Z,2.90
2017-04-29T14:21:46.310Z,2.92
2017-04-29T14:24:22.430Z,3.08
2017-04-29T14:27:02.518Z,3.52
2017-04-29T14:29:41.024Z,3.36
2017-04-29T14:32:25.240Z,3.38
2017-04-29T14:35:07.300Z,3.48
2017-04-29T14:37:34.795Z,3.50
2017-04-29T14:40:05.777Z,2.82
2017-04-29T14:42:34.163Z,2.80
2017-04-29T14:45:08.216Z,2.62
2017-04-29T14:47:38.791Z,2.72
2017-04-29T14:50:11.569Z,3.46
2017-04-29T14:52:44.592Z,3.10
2017-04-29T14:55:21.938Z,2.56
2017-04-29T14:57:55.906Z,2.30
2017-04-29T15:00:38.995Z,2.42
2017-04-29T15:03:16.680Z,2.48
2017-04-29T15:05:50.482Z,2.74
2017-04-29T15:08:17.584Z,2.64
2017-04-29T15:10:45.408Z,3.08
2017-04-29T15:13:13.521Z,2.26
2017-04-29T15:15:44.235Z,2.64
2017-04-29T15:18:11.562Z,1.86
2017-04-29T15:20:39.847Z,2.54
2017-04-29T15:23:06.887Z,3.52
2017-04-29T15:25:34.237Z,2.50
2017-04-29T15:28:01.411Z,3.14
2017-04-29T15:30:28.196Z,2.54
2017-04-29T15:32:54.510Z,2.00
2017-04-29T15:35:23.223Z,2.50
2017-04-29T15:37:50.085Z,2.60
2017-04-29T15:40:16.620Z,2.92
2017-04-29T15:42:45.975Z,2.60
2017-04-29T15:45:12.696Z,2.50
2017-04-29T15:47:41.263Z,2.48
2017-04-29T15:50:09.950Z,2.88
2017-04-29T15:52:38.558Z,2.60
2017-04-29T15:55:04.876Z,2.78
2017-04-29T15:57:31.208Z,2.12
2017-04-29T15:59:58.124Z,2.02
2017-04-29T16:02:24.514Z,2.94
2017-04-29T16:04:57.692Z,3.12
2017-04-29T16:07:24.844Z,2.62
2017-04-29T16:09:54.175Z,2.70
2017-04-29T16:12:20.611Z,3.08
2017-04-29T16:14:49.897Z,3.36
2017-04-29T16:17:18.680Z,3.52
2017-04-29T16:19:47.588Z,3.68
2017-04-29T16:22:13.991Z,3.58
2017-04-29T16:24:41.580Z,4.12
2017-04-29T16:27:09.091Z,5.18
2017-04-29T16:29:39.357Z,4.58
2017-04-29T16:32:07.120Z,3.98
2017-04-29T16:34:34.725Z,4.80
2017-04-29T16:37:01.094Z,5.18
2017-04-29T16:39:29.016Z,4.40
2017-04-29T16:41:56.276Z,4.86
2017-04-29T16:44:23.060Z,4.58
2017-04-29T16:46:51.423Z,4.24
2017-04-29T16:49:18.662Z,5.02
2017-04-29T16:51:44.988Z,4.76
2017-04-29T16:54:12.050Z,5.00
2017-04-29T16:56:39.820Z,5.96
2017-04-29T16:59:07.385Z,6.64
2017-04-29T17:01:34.113Z,5.74
2017-04-29T17:04:00.877Z,7.00
2017-04-29T17:06:27.483Z,5.84
2017-04-29T17:08:53.827Z,6.10
2017-04-29T17:11:20.902Z,5.30
2017-04-29T17:13:47.297Z,5.76
2017-04-29T17:16:13.711Z,5.88
2017-04-29T17:18:40.027Z,7.08
2017-04-29T17:21:07.348Z,6.48
2017-04-29T17:23:33.803Z,6.00
2017-04-29T17:26:01.919Z,6.56
2017-04-29T17:28:28.234Z,5.74
2017-04-29T17:30:54.559Z,10.26
2017-04-29T17:33:21.932Z,10.16
2017-04-29T17:35:48.250Z,10.12
2017-04-29T17:38:15.434Z,7.60
2017-04-29T17:40:41.771Z,5.96
2017-04-29T17:43:08.027Z,6.22
2017-04-29T17:45:34.342Z,6.22
2017-04-29T17:48:01.703Z,5.34
2017-04-29T17:50:28.022Z,5.98
2017-04-29T17:52:54.330Z,5.84
2017-04-29T17:55:21.359Z,6.96
2017-04-29T17:57:49.679Z,6.82
2017-04-29T18:00:16.670Z,6.66
2017-04-29T18:02:42.994Z,7.66
2017-04-29T18:05:09.304Z,8.50
2017-04-29T18:07:36.359Z,12.04
2017-04-29T18:10:03.492Z,7.74
2017-04-29T18:12:29.886Z,8.10
2017-04-29T18:14:57.315Z,8.10
2017-04-29T18:17:26.454Z,6.76
2017-04-29T18:19:52.748Z,6.18
2017-04-29T18:22:19.832Z,6.14
2017-04-29T18:24:46.371Z,6.38
2017-04-29T18:27:12.649Z,5.90
2017-04-29T18:29:40.480Z,5.76
2017-04-29T18:32:06.872Z,6.26
2017-04-29T18:34:33.951Z,7.02
2017-04-29T18:37:00.263Z,6.30
2017-04-29T18:39:26.664Z,7.64
2017-04-29T18:41:52.947Z,7.34
2017-04-29T18:44:20.057Z,6.24
2017-04-29T18:46:46.442Z,6.70
2017-04-29T18:49:13.511Z,5.38
2017-04-29T18:51:39.882Z,4.72
2017-04-29T18:54:06.203Z,5.00
2017-04-29T18:56:32.500Z,5.68
2017-04-29T18:58:59.570Z,5.66
2017-04-29T19:01:25.939Z,6.04
2017-04-29T19:03:53.271Z,5.88
2017-04-29T19:06:19.629Z,6.14
2017-04-29T19:08:46.061Z,6.02
2017-04-29T19:11:12.364Z,6.12
2017-04-29T19:13:39.475Z,4.78
2017-04-29T19:16:05.989Z,4.22
2017-04-29T19:18:32.293Z,4.08
2017-04-29T19:20:59.310Z,4.52
2017-04-29T19:23:25.981Z,6.02
2017-04-29T19:25:53.048Z,6.74
2017-04-29T19:28:20.183Z,7.44
2017-04-29T19:30:46.613Z,6.86
2017-04-29T19:33:13.683Z,6.84
2017-04-29T19:35:40.848Z,7.20
2017-04-29T19:38:07.225Z,5.58
2017-04-29T19:40:33.536Z,6.22
2017-04-29T19:42:59.816Z,7.28
2017-04-29T19:45:26.171Z,5.28
2017-04-29T19:47:52.571Z,8.28
2017-04-29T19:50:18.803Z,9.18
2017-04-29T19:52:45.883Z,9.44
2017-04-29T19:55:12.170Z,10.32
2017-04-29T19:57:42.230Z,9.84
2017-04-29T20:00:15.569Z,6.90
2017-04-29T20:02:48.041Z,8.24
2017-04-29T20:05:20.257Z,8.82
2017-04-29T20:07:52.524Z,8.02
2017-04-29T20:10:26.556Z,6.98
2017-04-29T20:12:58.840Z,6.78
2017-04-29T20:15:31.010Z,13.44
2017-04-29T20:18:03.354Z,16.02
2017-04-29T20:20:35.663Z,11.88
2017-04-29T20:23:08.537Z,8.12
2017-04-29T20:25:40.734Z,6.64
2017-04-29T20:28:11.942Z,10.38
2017-04-29T20:30:44.650Z,9.28
2017-04-29T20:33:17.466Z,8.80
2017-04-29T20:35:49.732Z,8.04
2017-04-29T20:38:21.542Z,8.54
2017-04-29T20:40:53.709Z,7.66
2017-04-29T20:43:26.905Z,6.10
2017-04-29T20:45:58.722Z,6.22
2017-04-29T20:48:32.164Z,6.28
2017-04-29T20:51:05.605Z,6.40
2017-04-29T20:53:39.071Z,6.50
2017-04-29T20:56:13.240Z,7.20
2017-04-29T20:58:46.139Z,11.04
2017-04-29T21:01:19.047Z,9.76
2017-04-29T21:03:51.769Z,9.96
2017-04-29T21:06:24.303Z,11.66
2017-04-29T21:08:57.153Z,11.48
2017-04-29T21:11:30.813Z,13.68
2017-04-29T21:14:03.432Z,13.24
2017-04-29T21:16:36.707Z,13.18
2017-04-29T21:19:09.785Z,13.12
2017-04-29T21:21:42.359Z,11.54
2017-04-29T21:24:08.958Z,10.30
2017-04-29T21:26:36.069Z,9.60
2017-04-29T21:29:03.592Z,10.98
2017-04-29T21:31:29.975Z,10.94
2017-04-29T21:33:56.402Z,11.68
2017-04-29T21:36:23.542Z,10.18
2017-04-29T21:38:49.835Z,10.80
2017-04-29T21:41:16.926Z,10.62
2017-04-29T21:43:44.044Z,12.84
2017-04-29T21:46:11.088Z,12.64
2017-04-29T21:48:38.254Z,11.92
2017-04-29T21:51:05.284Z,13.08
2017-04-29T21:53:31.674Z,12.04
2017-04-29T21:55:58.732Z,10.98
2017-04-29T21:58:25.034Z,10.64
2017-04-29T22:00:52.120Z,9.08
2017-04-29T22:03:18.426Z,11.58
2017-04-29T22:05:44.750Z,11.58
2017-04-29T22:08:11.895Z,11.00
2017-04-29T22:10:38.991Z,9.16
2017-04-29T22:13:05.344Z,13.06
2017-04-29T22:15:31.619Z,15.08
2017-04-29T22:17:58.196Z,13.32
2017-04-29T22:20:25.244Z,15.16
2017-04-29T22:22:52.312Z,13.96
2017-04-29T22:25:19.335Z,18.04
2017-04-29T22:27:46.420Z,16.42
2017-04-29T22:30:12.735Z,19.02
2017-04-29T22:32:39.810Z,16.06
2017-04-29T22:35:06.143Z,17.94
2017-04-29T22:37:32.440Z,15.30
2017-04-29T22:39:59.530Z,17.50
2017-04-29T22:42:26.559Z,17.58
2017-04-29T22:44:53.622Z,11.66
2017-04-29T22:47:19.968Z,12.95
2017-04-29T22:49:46.298Z,13.23
2017-04-29T22:52:12.622Z,13.08
2017-04-29T22:54:39.696Z,12.18
2017-04-29T22:57:05.967Z,11.72
2017-04-29T22:59:32.263Z,12.68
2017-04-29T23:01:58.707Z,14.34
2017-04-29T23:04:25.079Z,13.72
2017-04-29T23:06:51.465Z,14.10
2017-04-29T23:09:18.540Z,16.28
2017-04-29T23:11:44.851Z,18.18
2017-04-29T23:14:11.903Z,17.52
2017-04-29T23:16:39.029Z,16.43
2017-04-29T23:19:05.405Z,15.20
2017-04-29T23:21:32.462Z,14.42
2017-04-29T23:23:59.740Z,13.42
2017-04-29T23:26:26.788Z,14.64
2017-04-29T23:28:53.820Z,15.87
2017-04-29T23:31:21.123Z,12.37
2017-04-29T23:33:47.428Z,14.08
2017-04-29T23:36:13.734Z,15.48
2017-04-29T23:38:40.824Z,14.52
2017-04-29T23:41:07.139Z,15.78
2017-04-29T23:43:34.209Z,15.30
2017-04-29T23:46:00.751Z,14.75
2017-04-29T23:48:27.024Z,16.12
2017-04-29T23:50:53.402Z,14.93
2017-04-29T23:53:20.503Z,13.65
2017-04-29T23:55:46.856Z,12.82
2017-04-29T23:58:13.240Z,13.88
